Time;durP1;ratioP1;P1;durP2;ratioP2;P2;SDS_P1;SDS_P2;PMS_P1;PMS_P2;Temp;Humidity;BMP_temperature;BMP_pressure;BME280_temperature;BME280_humidity;BME280_pressure;Samples;Min_cycle;Max_cycle;Signal;HPM_P1;HPM_P2
2023/08/17 00:00:50;;;;;;;6.60;3.70;;;;;;;23.19;55.77;97015.33;108595;1275;22667;-75
2023/08/17 00:03:39;;;;;;;4.00;3.40;;;;;;;23.15;55.69;97014.47;108600;1275;22527;-75
2023/08/17 00:06:11;;;;;;;7.60;3.80;;;;;;;23.08;55.66;97011.09;108544;1274;25485;-75
2023/08/17 00:08:42;;;;;;;5.20;3.40;;;;;;;23.06;55.60;97007.07;108564;1272;25241;-75
2023/08/17 00:11:13;;;;;;;3.40;2.90;;;;;;;23.04;55.21;97008.58;108587;1274;22508;-75
2023/08/17 00:13:44;;;;;;;5.30;3.70;;;;;;;23.10;54.72;97006.63;108591;1275;22573;-75
2023/08/17 00:16:15;;;;;;;5.40;3.50;;;;;;;23.19;54.57;97006.69;108551;1272;22548;-75
2023/08/17 00:18:47;;;;;;;4.90;3.20;;;;;;;23.22;54.37;97006.83;108591;1272;25409;-75
2023/08/17 00:21:18;;;;;;;4.00;3.20;;;;;;;23.25;54.21;97008.85;108543;1272;22536;-75
2023/08/17 00:23:49;;;;;;;3.80;2.80;;;;;;;23.24;54.23;97005.27;108568;1268;25319;-75
2023/08/17 00:26:20;;;;;;;4.00;3.30;;;;;;;23.26;53.70;97004.93;108560;1270;22929;-75
2023/08/17 00:28:51;;;;;;;4.10;3.00;;;;;;;23.30;53.84;97006.25;108564;1275;24402;-75
2023/08/17 00:31:22;;;;;;;5.20;3.30;;;;;;;23.32;53.68;97008.84;108567;1270;25448;-75
2023/08/17 00:33:53;;;;;;;4.30;3.30;;;;;;;23.30;53.68;97006.88;108573;1275;22545;-75
2023/08/17 00:36:24;;;;;;;4.80;3.40;;;;;;;23.29;53.55;97007.24;108557;1269;25353;-75
2023/08/17 00:38:55;;;;;;;4.30;3.80;;;;;;;23.26;53.88;97006.62;108609;1275;24205;-75
2023/08/17 00:41:28;;;;;;;5.70;3.70;;;;;;;23.18;54.06;97005.98;108569;1275;22524;-75
2023/08/17 00:43:59;;;;;;;5.30;3.60;;;;;;;23.14;53.98;97001.40;108576;1274;24481;-75
2023/08/17 00:46:31;;;;;;;5.90;3.50;;;;;;;23.14;54.20;97006.71;108523;1275;24382;-75
2023/08/17 00:49:02;;;;;;;5.60;3.00;;;;;;;23.08;54.16;97003.73;108595;1272;25294;-75
2023/08/17 00:51:34;;;;;;;4.60;2.90;;;;;;;23.11;53.19;97004.66;108588;1275;22525;-75
2023/08/17 00:54:06;;;;;;;6.50;3.00;;;;;;;23.26;52.70;97005.00;108590;1275;22676;-75
2023/08/17 00:56:38;;;;;;;4.00;2.80;;;;;;;23.30;52.57;97005.41;108559;1275;22521;-75
2023/08/17 00:59:09;;;;;;;3.20;2.70;;;;;;;23.32;52.33;97004.21;108525;1274;24282;-75
2023/08/17 01:01:40;;;;;;;3.00;2.60;;;;;;;23.36;51.97;97003.23;108481;1274;22522;-75
2023/08/17 01:04:12;;;;;;;4.80;2.90;;;;;;;23.41;51.60;97001.88;108519;1276;22556;-75
2023/08/17 01:06:43;;;;;;;5.10;3.20;;;;;;;23.45;51.69;97003.50;108520;1276;22531;-75
2023/08/17 01:09:14;;;;;;;3.40;2.80;;;;;;;23.48;51.33;96997.84;108551;1274;22526;-75
2023/08/17 01:11:54;;;;;;;4.00;3.10;;;;;;;23.51;51.21;96995.39;108512;1276;22567;-75
2023/08/17 01:14:32;;;;;;;4.90;3.20;;;;;;;23.52;51.29;97000.13;108541;1272;22527;-75
2023/08/17 01:17:08;;;;;;;4.70;3.20;;;;;;;23.52;51.31;97003.98;108520;1275;22523;-75
2023/08/17 01:19:41;;;;;;;8.30;4.00;;;;;;;23.51;51.41;97006.52;108540;1276;24272;-75
2023/08/17 01:22:15;;;;;;;4.30;3.40;;;;;;;23.50;51.76;97006.15;108590;1276;22627;-75
2023/08/17 01:24:46;;;;;;;4.80;3.40;;;;;;;23.47;51.98;97001.06;108530;1260;22584;-75
2023/08/17 01:27:17;;;;;;;6.60;3.20;;;;;;;23.42;51.85;97004.76;108537;1276;22588;-75
2023/08/17 01:29:48;;;;;;;4.10;3.70;;;;;;;23.39;52.19;97006.00;108533;1276;25491;-75
2023/08/17 01:32:28;;;;;;;5.40;4.20;;;;;;;23.34;52.58;97006.19;108526;1276;22540;-75
2023/08/17 01:35:03;;;;;;;6.80;4.10;;;;;;;23.28;53.10;97010.38;108517;1276;23944;-75
2023/08/17 01:37:40;;;;;;;5.60;3.90;;;;;;;23.24;53.42;97016.47;108521;1276;25213;-75
2023/08/17 01:40:13;;;;;;;5.90;4.40;;;;;;;23.19;54.08;97024.68;108529;1272;22759;-75
2023/08/17 01:42:44;;;;;;;6.10;4.50;;;;;;;23.12;54.73;97030.17;108577;1276;22588;-75
2023/08/17 01:45:16;;;;;;;5.30;4.10;;;;;;;23.05;54.67;97029.21;108525;1276;22519;-76
2023/08/17 01:47:48;;;;;;;5.20;4.40;;;;;;;22.99;54.80;97037.36;108535;1276;25332;-75
2023/08/17 01:50:19;;;;;;;6.30;4.20;;;;;;;22.94;55.06;97032.91;108546;1276;22525;-75
2023/08/17 01:52:51;;;;;;;6.90;5.00;;;;;;;22.86;55.12;97028.83;108490;1275;22598;-75
2023/08/17 01:55:24;;;;;;;4.90;4.00;;;;;;;22.83;55.67;97026.35;108558;1276;22523;-75
2023/08/17 01:57:55;;;;;;;6.30;3.60;;;;;;;22.80;55.83;97020.16;108583;1275;25710;-75
2023/08/17 02:00:26;;;;;;;4.00;3.50;;;;;;;22.77;55.16;97016.52;108576;1275;22558;-75
2023/08/17 02:02:57;;;;;;;7.40;3.40;;;;;;;22.80;54.66;97013.20;108603;1275;25412;-75
2023/08/17 02:05:29;;;;;;;4.10;3.20;;;;;;;22.87;54.50;97008.76;108582;1275;23312;-75
2023/08/17 02:08:00;;;;;;;4.50;3.40;;;;;;;22.92;54.09;97011.81;108546;1274;22565;-75
2023/08/17 02:10:30;;;;;;;5.70;4.00;;;;;;;22.96;54.21;97018.81;108547;1270;25491;-75
2023/08/17 02:13:01;;;;;;;5.20;4.10;;;;;;;22.98;54.81;97020.17;108561;1276;22547;-75
2023/08/17 02:15:32;;;;;;;6.10;4.70;;;;;;;22.93;55.57;97020.33;108510;1276;25328;-75
2023/08/17 02:18:04;;;;;;;8.00;4.70;;;;;;;22.87;56.08;97021.81;108515;1276;22636;-75
2023/08/17 02:20:35;;;;;;;6.40;5.10;;;;;;;22.80;56.34;97023.95;108539;1276;22593;-75
2023/08/17 02:23:06;;;;;;;6.30;4.70;;;;;;;22.76;56.79;97020.27;108576;1276;22681;-74
2023/08/17 02:25:40;;;;;;;7.90;5.00;;;;;;;22.72;57.32;97021.65;108527;1269;25353;-75
2023/08/17 02:28:11;;;;;;;7.40;4.50;;;;;;;22.68;57.77;97026.03;108609;1269;22542;-75
2023/08/17 02:30:42;;;;;;;6.20;4.20;;;;;;;22.63;58.23;97021.69;108490;1271;22608;-75
2023/08/17 02:33:14;;;;;;;5.20;4.70;;;;;;;22.51;58.75;97020.08;108548;1272;22642;-75
2023/08/17 02:35:49;;;;;;;6.10;4.70;;;;;;;22.34;58.81;97025.95;108502;1270;22549;-75
2023/08/17 02:38:21;;;;;;;5.30;4.50;;;;;;;22.27;59.04;97026.85;108523;1275;22523;-75
2023/08/17 02:40:54;;;;;;;5.70;4.70;;;;;;;22.24;59.11;97028.00;108524;1270;22531;-75
2023/08/17 02:43:25;;;;;;;9.10;5.50;;;;;;;22.17;59.52;97033.89;108524;1270;22567;-75
2023/08/17 02:45:57;;;;;;;8.10;5.70;;;;;;;22.12;59.82;97036.69;108503;1275;22525;-75
2023/08/17 02:48:31;;;;;;;6.60;5.70;;;;;;;22.03;60.17;97035.63;108558;1264;22527;-75
2023/08/17 02:51:02;;;;;;;7.40;5.40;;;;;;;21.98;60.48;97030.22;108509;1272;22538;-75
2023/08/17 02:53:36;;;;;;;6.50;5.70;;;;;;;21.95;61.09;97036.85;108495;1275;22543;-75
2023/08/17 02:56:11;;;;;;;7.20;6.40;;;;;;;21.95;61.34;97046.02;108533;1271;23857;-75
2023/08/17 02:58:42;;;;;;;8.40;5.70;;;;;;;21.94;61.49;97044.52;108606;1275;22608;-75
2023/08/17 03:01:16;;;;;;;8.30;5.80;;;;;;;21.85;61.73;97044.11;108591;1272;22514;-75
2023/08/17 03:03:47;;;;;;;7.90;5.60;;;;;;;21.76;62.30;97052.09;108584;1270;24437;-75
2023/08/17 03:06:17;;;;;;;5.90;5.30;;;;;;;21.76;62.48;97057.79;108560;1275;24215;-75
2023/08/17 03:08:48;;;;;;;8.20;6.20;;;;;;;21.68;62.47;97059.33;108597;1272;25280;-75
2023/08/17 03:11:20;;;;;;;5.90;5.30;;;;;;;21.59;62.70;97060.37;108579;1275;24224;-75
2023/08/17 03:13:59;;;;;;;7.50;5.30;;;;;;;21.54;62.73;97060.73;108595;1272;22618;-75
2023/08/17 03:16:30;;;;;;;7.30;5.10;;;;;;;21.47;62.65;97059.36;108567;1275;22527;-74
2023/08/17 03:19:02;;;;;;;6.90;4.70;;;;;;;21.41;63.25;97062.27;108568;1272;22564;-75
2023/08/17 03:21:33;;;;;;;4.70;4.30;;;;;;;21.33;63.56;97065.34;108628;1275;22712;-74
2023/08/17 03:24:05;;;;;;;5.30;4.70;;;;;;;21.24;63.83;97060.25;108563;1275;22567;-75
2023/08/17 03:26:38;;;;;;;5.30;4.60;;;;;;;21.23;64.07;97060.41;108589;1270;22533;-75
2023/08/17 03:29:10;;;;;;;7.90;4.30;;;;;;;21.19;64.29;97061.54;108573;1275;24223;-75
2023/08/17 03:31:41;;;;;;;5.60;4.40;;;;;;;21.20;64.96;97061.78;108580;1272;22531;-75
2023/08/17 03:34:15;;;;;;;4.80;4.10;;;;;;;21.12;65.05;97066.54;108590;1275;22642;-75
2023/08/17 03:36:46;;;;;;;5.10;4.40;;;;;;;21.01;64.83;97070.86;108580;1275;22631;-75
2023/08/17 03:39:19;;;;;;;5.80;4.50;;;;;;;20.95;65.01;97071.29;108567;1275;22535;-75
2023/08/17 03:41:50;;;;;;;5.30;4.10;;;;;;;20.92;65.15;97075.16;108599;1275;22618;-75
2023/08/17 03:44:21;;;;;;;5.50;4.30;;;;;;;20.91;65.22;97074.36;108565;1275;22514;-75
2023/08/17 03:46:52;;;;;;;5.20;4.70;;;;;;;20.97;65.83;97077.58;108548;1254;22526;-75
2023/08/17 03:49:24;;;;;;;5.60;5.00;;;;;;;21.04;66.17;97080.52;108574;1275;22534;-75
2023/08/17 03:51:57;;;;;;;5.90;5.30;;;;;;;21.08;66.48;97081.17;108603;1275;22541;-75
2023/08/17 03:54:30;;;;;;;7.70;4.90;;;;;;;20.98;66.72;97080.17;108551;1275;22524;-75
2023/08/17 03:57:02;;;;;;;8.00;4.90;;;;;;;20.84;66.93;97080.75;108567;1275;24337;-75
2023/08/17 03:59:34;;;;;;;5.80;4.60;;;;;;;20.73;67.22;97081.71;108590;1273;25338;-75
2023/08/17 04:02:07;;;;;;;5.40;4.90;;;;;;;20.69;67.47;97077.56;108566;1272;22517;-75
2023/08/17 04:04:39;;;;;;;5.50;5.00;;;;;;;20.76;68.04;97078.17;108586;1270;22602;-75
2023/08/17 04:07:10;;;;;;;7.00;5.50;;;;;;;20.81;68.55;97073.70;108572;1273;22521;-75
2023/08/17 04:09:46;;;;;;;7.40;5.70;;;;;;;20.85;68.65;97073.86;108609;1275;22517;-75
2023/08/17 04:12:17;;;;;;;7.50;5.30;;;;;;;20.90;68.87;97077.21;108600;1275;22947;-75
2023/08/17 04:14:48;;;;;;;8.10;4.90;;;;;;;20.95;69.05;97082.52;108611;1272;22531;-75
2023/08/17 04:17:26;;;;;;;6.20;5.40;;;;;;;20.95;68.80;97081.03;108532;1270;22524;-75
2023/08/17 04:19:58;;;;;;;5.50;5.00;;;;;;;20.89;68.86;97081.23;108585;1275;22660;-75
2023/08/17 04:22:30;;;;;;;7.50;5.10;;;;;;;20.81;69.12;97082.86;108562;1272;22517;-75
2023/08/17 04:25:02;;;;;;;6.90;5.80;;;;;;;20.78;69.37;97085.46;108547;1275;22651;-75
2023/08/17 04:27:33;;;;;;;5.50;4.70;;;;;;;20.70;69.33;97087.29;108588;1273;22543;-75
2023/08/17 04:30:05;;;;;;;7.70;4.50;;;;;;;20.63;69.15;97089.57;108547;1270;22527;-75
2023/08/17 04:32:37;;;;;;;5.40;4.80;;;;;;;20.59;69.15;97087.52;108558;1275;23916;-75
2023/08/17 04:35:09;;;;;;;5.60;4.40;;;;;;;20.55;69.53;97086.30;108540;1272;22525;-75
2023/08/17 04:37:40;;;;;;;6.70;4.90;;;;;;;20.50;69.50;97086.95;108541;1275;22543;-75
2023/08/17 04:40:13;;;;;;;5.60;4.70;;;;;;;20.46;69.44;97087.06;108545;1273;22532;-74
2023/08/17 04:42:47;;;;;;;7.90;4.70;;;;;;;20.48;69.33;97084.66;108443;1275;22646;-75
2023/08/17 04:45:18;;;;;;;6.50;4.40;;;;;;;20.54;69.27;97087.10;108330;1275;22591;-78
2023/08/17 04:47:50;;;;;;;5.10;4.60;;;;;;;20.59;69.47;97092.77;108477;1275;22525;-77
2023/08/17 04:50:21;;;;;;;7.70;4.80;;;;;;;20.68;70.10;97095.60;108527;1275;24076;-77
2023/08/17 04:52:52;;;;;;;5.50;4.50;;;;;;;20.72;70.12;97097.92;108586;1275;22515;-77
2023/08/17 04:55:23;;;;;;;5.60;4.60;;;;;;;20.67;70.40;97094.40;108537;1275;22522;-77
2023/08/17 04:57:54;;;;;;;6.10;5.50;;;;;;;20.62;70.79;97097.02;108557;1269;22528;-77
2023/08/17 05:00:27;;;;;;;7.30;5.00;;;;;;;20.65;71.13;97102.75;108529;1273;22531;-77
2023/08/17 05:02:58;;;;;;;5.40;4.90;;;;;;;20.70;71.28;97102.70;108557;1269;25629;-77
2023/08/17 05:05:30;;;;;;;6.30;5.20;;;;;;;20.64;71.05;97099.60;108371;1273;24209;-77
2023/08/17 05:08:01;;;;;;;6.60;4.80;;;;;;;20.55;71.31;97097.77;108289;1275;22528;-77
2023/08/17 05:10:32;;;;;;;7.70;5.40;;;;;;;20.53;71.45;97100.14;108421;1270;24309;-77
2023/08/17 05:13:03;;;;;;;7.00;4.50;;;;;;;20.56;71.76;97097.98;108527;1275;24468;-77
2023/08/17 05:15:34;;;;;;;5.50;4.80;;;;;;;20.69;72.12;97095.64;108407;1270;22517;-77
2023/08/17 05:18:05;;;;;;;6.10;5.10;;;;;;;20.96;72.52;97091.59;108437;1269;22521;-78
2023/08/17 05:20:36;;;;;;;8.80;5.40;;;;;;;21.17;72.29;97095.13;108340;1269;24219;-78
2023/08/17 05:23:08;;;;;;;4.90;4.40;;;;;;;21.27;72.30;97097.80;108461;1273;25313;-77
2023/08/17 05:25:39;;;;;;;6.80;5.30;;;;;;;21.36;72.16;97091.98;108498;1270;22550;-77
2023/08/17 05:28:10;;;;;;;7.30;5.20;;;;;;;21.37;72.18;97088.92;108390;1274;22560;-76
2023/08/17 05:30:41;;;;;;;8.90;5.30;;;;;;;21.42;72.25;97083.10;108419;1271;22580;-78
2023/08/17 05:33:12;;;;;;;6.50;4.80;;;;;;;21.51;72.63;97079.98;108371;1269;22559;-77
2023/08/17 05:35:43;;;;;;;6.40;4.90;;;;;;;21.56;72.83;97081.86;108470;1275;23383;-78
2023/08/17 05:38:15;;;;;;;7.30;5.00;;;;;;;21.65;73.18;97087.00;108367;1270;22559;-78
2023/08/17 05:40:46;;;;;;;5.80;5.20;;;;;;;21.71;72.97;97087.72;108389;1272;22547;-78
2023/08/17 05:43:17;;;;;;;8.20;5.50;;;;;;;21.75;72.78;97091.39;108413;1276;22558;-78
2023/08/17 05:45:48;;;;;;;6.80;5.60;;;;;;;21.82;72.63;97089.05;108384;1273;22568;-77
2023/08/17 05:48:21;;;;;;;6.20;4.90;;;;;;;21.95;72.67;97090.08;108447;1273;22545;-77
2023/08/17 05:50:56;;;;;;;10.90;5.20;;;;;;;22.11;72.65;97089.02;108434;1276;26343;-78
2023/08/17 05:53:27;;;;;;;7.60;5.10;;;;;;;22.32;72.87;97086.16;108495;1270;22547;-78
2023/08/17 05:55:58;;;;;;;6.10;5.00;;;;;;;22.55;73.15;97087.20;108411;1276;22946;-78
2023/08/17 05:58:29;;;;;;;6.60;4.90;;;;;;;22.98;73.93;97089.62;108447;1270;22868;-78
2023/08/17 06:01:08;;;;;;;6.00;5.10;;;;;;;23.38;72.80;97096.58;108426;1272;22592;-78
2023/08/17 06:03:39;;;;;;;5.70;4.70;;;;;;;23.55;70.98;97096.53;108406;1276;24257;-78
2023/08/17 06:06:13;;;;;;;5.40;4.20;;;;;;;23.54;70.63;97098.77;108357;1270;22931;-79
2023/08/17 06:08:44;;;;;;;7.60;4.90;;;;;;;23.60;70.67;97097.30;108390;1276;22551;-78
2023/08/17 06:11:15;;;;;;;5.50;4.60;;;;;;;23.74;71.07;97096.30;108411;1276;22531;-78
2023/08/17 06:13:46;;;;;;;7.40;4.90;;;;;;;24.16;72.07;97097.95;108411;1276;25271;-78
2023/08/17 06:16:20;;;;;;;6.80;4.70;;;;;;;24.91;71.46;97096.91;108250;1276;30693;-79
2023/08/17 06:18:52;;;;;;;5.50;4.10;;;;;;;25.69;70.77;97094.71;108305;1269;22551;-78
2023/08/17 06:21:23;;;;;;;7.20;4.40;;;;;;;26.32;68.57;97094.15;108490;1269;22548;-78
2023/08/17 06:23:54;;;;;;;6.60;4.40;;;;;;;26.79;66.79;97090.77;108401;1273;22523;-78
2023/08/17 06:26:25;;;;;;;5.70;4.60;;;;;;;27.07;64.49;97091.85;108384;1273;25334;-78
2023/08/17 06:28:56;;;;;;;5.50;4.60;;;;;;;27.16;63.36;97089.46;108454;1273;22522;-78
2023/08/17 06:31:28;;;;;;;6.00;4.40;;;;;;;27.29;61.65;97089.41;108362;1269;22524;-78
2023/08/17 06:34:00;;;;;;;4.00;3.60;;;;;;;27.32;60.21;97086.17;108349;1270;23077;-77
2023/08/17 06:36:34;;;;;;;4.50;3.90;;;;;;;27.54;60.18;97087.22;108359;1270;22521;-77
2023/08/17 06:39:05;;;;;;;6.20;4.20;;;;;;;28.03;59.47;97082.59;108400;1276;22533;-78
2023/08/17 06:41:36;;;;;;;7.20;4.10;;;;;;;28.36;58.59;97088.46;108423;1276;22630;-77
2023/08/17 06:44:08;;;;;;;4.60;4.00;;;;;;;28.68;57.67;97086.51;108412;1276;22511;-77
2023/08/17 06:46:39;;;;;;;5.30;4.00;;;;;;;28.91;57.14;97085.89;108400;1275;24225;-77
2023/08/17 06:49:12;;;;;;;5.30;4.10;;;;;;;29.15;56.76;97085.00;108486;1275;22713;-77
2023/08/17 06:51:43;;;;;;;5.70;4.10;;;;;;;29.40;56.07;97084.09;108501;1271;22504;-77
2023/08/17 06:54:14;;;;;;;4.90;4.40;;;;;;;29.47;54.82;97080.29;108585;1273;22517;-77
2023/08/17 06:56:45;;;;;;;4.60;4.10;;;;;;;29.60;54.71;97082.15;108456;1275;22619;-77
2023/08/17 06:59:16;;;;;;;6.20;4.20;;;;;;;29.84;54.04;97086.12;108490;1269;23268;-78
2023/08/17 07:01:47;;;;;;;6.10;4.20;;;;;;;29.76;53.08;97082.15;108505;1275;22524;-77
2023/08/17 07:04:18;;;;;;;6.40;4.60;;;;;;;29.82;53.11;97080.97;108546;1273;22547;-78
2023/08/17 07:06:49;;;;;;;5.10;4.00;;;;;;;30.09;52.98;97082.42;108486;1269;22521;-77
2023/08/17 07:09:20;;;;;;;6.50;4.80;;;;;;;30.31;52.58;97081.74;108538;1275;25331;-77
2023/08/17 07:11:52;;;;;;;6.20;5.00;;;;;;;30.33;52.08;97079.08;108502;1267;22523;-78
2023/08/17 07:14:24;;;;;;;7.70;4.70;;;;;;;30.19;51.41;97086.39;108462;1275;22528;-78
2023/08/17 07:16:55;;;;;;;7.00;5.00;;;;;;;29.96;51.39;97081.48;108486;1272;22537;-78
2023/08/17 07:19:26;;;;;;;5.70;4.40;;;;;;;29.93;51.46;97083.84;108554;1270;22534;-75
2023/08/17 07:21:57;;;;;;;5.60;4.90;;;;;;;29.83;51.94;97082.36;108256;1272;22965;-75
2023/08/17 07:24:28;;;;;;;10.30;5.60;;;;;;;29.66;51.32;97083.25;108229;1270;22534;-75
2023/08/17 07:26:59;;;;;;;8.00;5.20;;;;;;;29.34;51.67;97081.59;108456;1275;26096;-74
2023/08/17 07:29:30;;;;;;;7.40;5.20;;;;;;;29.00;51.94;97087.16;108427;1270;22525;-75
2023/08/17 07:32:02;;;;;;;8.80;5.40;;;;;;;28.83;52.12;97080.16;108497;1275;26420;-75
2023/08/17 07:34:33;;;;;;;6.30;5.00;;;;;;;28.83;52.90;97083.27;108528;1274;22521;-74
2023/08/17 07:37:04;;;;;;;6.10;5.10;;;;;;;28.97;52.85;97086.68;108577;1275;22655;-75
2023/08/17 07:39:36;;;;;;;5.90;5.30;;;;;;;28.96;52.43;97088.39;108543;1269;22542;-75
2023/08/17 07:42:07;;;;;;;8.30;5.40;;;;;;;28.90;52.45;97091.52;108639;1275;22553;-75
2023/08/17 07:44:39;;;;;;;8.70;5.80;;;;;;;28.86;52.63;97093.67;108621;1275;22536;-75
2023/08/17 07:47:10;;;;;;;8.10;5.50;;;;;;;28.80;52.24;97096.52;108548;1275;22524;-74
2023/08/17 07:49:41;;;;;;;12.20;5.30;;;;;;;28.76;52.88;97095.73;108572;1275;24154;-74
2023/08/17 07:52:15;;;;;;;8.50;5.40;;;;;;;28.79;52.87;97093.16;108569;1275;22535;-75
2023/08/17 07:54:47;;;;;;;8.10;5.10;;;;;;;28.74;53.16;97094.17;108551;1275;22524;-75
2023/08/17 08:00:35;;;;;;;8.50;5.90;;;;;;;29.15;53.32;97088.52;108607;1275;22570;-74
2023/08/17 08:03:07;;;;;;;8.20;5.30;;;;;;;29.31;52.73;97088.54;108595;1275;22525;-75
2023/08/17 08:05:38;;;;;;;6.00;5.40;;;;;;;29.40;53.64;97083.54;108590;1275;24804;-74
2023/08/17 08:08:10;;;;;;;8.70;5.60;;;;;;;29.51;53.45;97084.27;108599;1274;22602;-75
2023/08/17 08:10:41;;;;;;;7.40;5.50;;;;;;;29.60;52.81;97081.23;108661;1274;24202;-75
2023/08/17 08:13:12;;;;;;;9.10;5.70;;;;;;;29.63;52.62;97079.66;108601;1268;22649;-75
2023/08/17 08:15:43;;;;;;;8.40;5.60;;;;;;;29.66;52.04;97080.67;108465;1269;22646;-75
2023/08/17 08:18:14;;;;;;;13.80;6.20;;;;;;;29.70;52.11;97078.25;108608;1274;22529;-75
2023/08/17 08:20:45;;;;;;;10.30;5.50;;;;;;;29.79;52.08;97073.55;108454;1267;22609;-75
2023/08/17 08:23:16;;;;;;;8.10;6.10;;;;;;;29.89;52.56;97071.97;108629;1274;22536;-75
2023/08/17 08:25:47;;;;;;;6.50;5.60;;;;;;;29.95;51.29;97067.58;108572;1275;24255;-76
2023/08/17 08:28:18;;;;;;;7.80;5.70;;;;;;;29.77;51.22;97063.33;108587;1267;22559;-76
2023/08/17 08:30:50;;;;;;;6.40;5.30;;;;;;;29.77;51.79;97062.47;108645;1275;22517;-76
2023/08/17 08:33:21;;;;;;;6.10;5.10;;;;;;;29.86;51.01;97064.95;108753;1269;24401;-76
2023/08/17 08:35:57;;;;;;;6.70;5.00;;;;;;;29.96;51.38;97064.54;108735;1274;22522;-76
2023/08/17 08:38:30;;;;;;;6.70;5.50;;;;;;;30.14;51.54;97056.48;108749;1267;22520;-76
2023/08/17 08:41:02;;;;;;;7.90;6.00;;;;;;;30.36;51.74;97053.03;108515;1268;25313;-76
2023/08/17 08:43:33;;;;;;;6.30;5.10;;;;;;;30.57;51.83;97052.23;108490;1268;23277;-76
2023/08/17 08:46:04;;;;;;;6.20;4.50;;;;;;;30.74;51.41;97052.81;108472;1269;22645;-76
2023/08/17 08:48:38;;;;;;;6.30;5.50;;;;;;;30.88;51.06;97050.61;108406;1274;22638;-76
2023/08/17 08:51:15;;;;;;;5.80;5.20;;;;;;;30.82;50.65;97052.11;108315;1276;200762;-76
2023/08/17 08:53:50;;;;;;;6.30;5.50;;;;;;;30.63;49.79;97051.83;108416;1273;24144;-76
2023/08/17 08:56:25;;;;;;;6.10;5.00;;;;;;;30.35;49.22;97053.89;108389;1271;22549;-76
2023/08/17 08:58:56;;;;;;;7.80;4.90;;;;;;;30.12;49.60;97058.43;108454;1276;22739;-76
2023/08/17 09:01:29;;;;;;;7.90;5.90;;;;;;;30.03;49.88;97059.23;108450;1276;22517;-76
2023/08/17 09:04:01;;;;;;;7.10;6.20;;;;;;;29.89;50.13;97060.11;108435;1276;22514;-76
2023/08/17 09:06:34;;;;;;;8.90;6.40;;;;;;;29.83;50.71;97062.98;108532;1275;22532;-76
2023/08/17 09:09:05;;;;;;;7.60;5.90;;;;;;;29.72;50.69;97070.75;108568;1268;26451;-76
2023/08/17 09:11:37;;;;;;;6.70;5.90;;;;;;;29.66;51.50;97070.52;108588;1269;22538;-76
2023/08/17 09:14:09;;;;;;;9.90;6.50;;;;;;;29.69;51.82;97063.02;108579;1268;24397;-77
2023/08/17 09:16:40;;;;;;;9.30;6.00;;;;;;;29.70;52.36;97063.10;108607;1273;22528;-76
2023/08/17 09:19:11;;;;;;;8.50;6.40;;;;;;;29.76;52.69;97058.56;108502;1273;22517;-76
2023/08/17 09:21:42;;;;;;;10.00;6.60;;;;;;;29.84;52.68;97055.27;108430;1273;22745;-76
2023/08/17 09:24:15;;;;;;;9.20;6.60;;;;;;;29.94;53.22;97054.31;108436;1276;22515;-76
2023/08/17 09:26:46;;;;;;;7.70;6.40;;;;;;;30.09;53.34;97052.48;108377;1269;23495;-76
2023/08/17 09:29:23;;;;;;;8.30;6.30;;;;;;;30.11;53.02;97056.55;108451;1269;24283;-76
2023/08/17 09:31:54;;;;;;;10.20;6.60;;;;;;;30.17;52.94;97057.17;108449;1269;24225;-76
2023/08/17 09:34:25;;;;;;;6.50;5.60;;;;;;;30.08;51.99;97058.04;108457;1276;22553;-76
2023/08/17 09:36:56;;;;;;;7.20;5.40;;;;;;;29.74;51.43;97062.86;108415;1273;22537;-76
2023/08/17 09:39:28;;;;;;;6.80;5.40;;;;;;;29.39;51.87;97061.85;108548;1268;22664;-76
2023/08/17 09:42:02;;;;;;;7.70;5.10;;;;;;;29.22;52.06;97062.23;108563;1275;25247;-76
2023/08/17 09:44:36;;;;;;;6.00;5.40;;;;;;;29.11;52.33;97066.90;108583;1269;23537;-76
2023/08/17 09:47:08;;;;;;;7.50;5.90;;;;;;;28.85;52.18;97073.07;108550;1268;22526;-76
2023/08/17 09:49:39;;;;;;;7.40;5.70;;;;;;;28.53;52.01;97071.72;108620;1275;22528;-77
2023/08/17 09:52:12;;;;;;;7.60;5.60;;;;;;;28.30;52.61;97068.11;108563;1268;22565;-76
2023/08/17 09:54:43;;;;;;;6.70;5.20;;;;;;;28.26;53.70;97062.79;108487;1270;23308;-76
2023/08/17 09:57:15;;;;;;;7.70;5.80;;;;;;;28.24;54.10;97061.44;108613;1269;42944;-76
2023/08/17 09:59:47;;;;;;;6.30;5.60;;;;;;;28.23;54.30;97057.70;108733;1275;22534;-76
2023/08/17 10:02:23;;;;;;;8.40;5.10;;;;;;;28.18;54.74;97054.48;108692;1268;22518;-76
2023/08/17 10:04:58;;;;;;;5.90;5.20;;;;;;;28.12;55.02;97054.29;108743;1275;25398;-76
2023/08/17 10:07:32;;;;;;;6.30;5.20;;;;;;;28.05;55.34;97052.56;108627;1270;22521;-76
2023/08/17 10:10:06;;;;;;;6.40;5.40;;;;;;;28.00;55.73;97058.83;108683;1275;23007;-76
2023/08/17 10:12:45;;;;;;;6.10;5.50;;;;;;;27.93;56.02;97057.39;108705;1269;22524;-76
2023/08/17 10:15:22;;;;;;;8.10;5.30;;;;;;;27.87;56.12;97056.81;108670;1269;21834;-76
2023/08/17 10:18:07;;;;;;;8.80;5.50;;;;;;;27.73;56.13;97063.41;108641;1268;22525;-76
2023/08/17 10:20:42;;;;;;;6.00;5.40;;;;;;;27.63;56.55;97066.83;108601;1269;22524;-76
2023/08/17 10:23:18;;;;;;;7.30;5.60;;;;;;;27.63;57.19;97073.06;108566;1269;22591;-76
2023/08/17 10:25:50;;;;;;;9.50;6.00;;;;;;;27.66;57.15;97072.39;108610;1275;22935;-76
2023/08/17 10:28:22;;;;;;;6.40;5.80;;;;;;;27.71;57.36;97068.61;108537;1269;22551;-77
2023/08/17 10:30:54;;;;;;;8.20;5.30;;;;;;;27.79;57.49;97068.52;108550;1275;23714;-76
2023/08/17 10:33:26;;;;;;;7.00;5.50;;;;;;;27.84;57.67;97070.09;108523;1275;22547;-76
2023/08/17 10:35:58;;;;;;;7.40;5.30;;;;;;;27.86;57.70;97071.34;108513;1268;22521;-76
2023/08/17 10:38:29;;;;;;;7.00;5.20;;;;;;;27.81;57.64;97073.66;108588;1270;22525;-76
2023/08/17 10:41:14;;;;;;;7.00;5.10;;;;;;;27.78;57.48;97079.48;108567;1268;22638;-76
2023/08/17 10:44:07;;;;;;;5.60;4.80;;;;;;;27.78;57.49;97082.77;108600;1275;22564;-76
2023/08/17 10:46:40;;;;;;;6.10;4.70;;;;;;;27.74;57.64;97080.86;108453;1269;22553;-77
2023/08/17 10:49:28;;;;;;;6.70;5.70;;;;;;;27.76;58.08;97084.46;108682;1269;22525;-77
2023/08/17 10:52:08;;;;;;;6.70;4.80;;;;;;;27.82;58.31;97087.06;108668;1255;24224;-77
2023/08/17 10:54:41;;;;;;;7.20;5.30;;;;;;;27.89;58.50;97091.09;108636;1268;22527;-77
2023/08/17 10:57:36;;;;;;;6.10;4.60;;;;;;;27.91;58.34;97094.67;108222;1272;24215;-78
2023/08/17 11:00:26;;;;;;;7.40;5.00;;;;;;;27.95;58.35;97096.33;108610;1275;24233;-77
2023/08/17 11:03:00;;;;;;;6.60;5.10;;;;;;;28.03;58.73;97090.39;108576;1269;25265;-77
2023/08/17 11:05:55;;;;;;;7.00;4.80;;;;;;;28.10;58.88;97090.89;108685;1275;22544;-77
2023/08/17 11:08:32;;;;;;;7.40;4.70;;;;;;;28.14;58.24;97089.04;108533;1275;22525;-76
2023/08/17 11:11:07;;;;;;;8.10;4.90;;;;;;;28.25;58.55;97085.61;108641;1275;25426;-77
2023/08/17 11:13:43;;;;;;;5.50;4.70;;;;;;;28.34;58.02;97090.19;108659;1275;24200;-77
2023/08/17 11:16:15;;;;;;;6.30;4.80;;;;;;;28.36;57.53;97090.52;108562;1275;24192;-78
2023/08/17 11:18:47;;;;;;;8.70;5.00;;;;;;;28.33;57.42;97089.41;108573;1269;25410;-76
2023/08/17 11:21:19;;;;;;;6.10;5.10;;;;;;;28.28;56.84;97093.58;108560;1272;22512;-76
2023/08/17 11:23:51;;;;;;;6.00;5.00;;;;;;;28.21;57.14;97096.57;108572;1272;23188;-76
2023/08/17 11:26:23;;;;;;;7.70;5.10;;;;;;;28.13;56.56;97101.04;108546;1272;22517;-75
2023/08/17 11:28:54;;;;;;;6.40;4.90;;;;;;;27.92;56.00;97100.05;108587;1272;22531;-75
2023/08/17 11:31:26;;;;;;;6.50;5.10;;;;;;;27.68;55.84;97095.52;108502;1270;24229;-74
2023/08/17 11:33:59;;;;;;;6.70;5.50;;;;;;;27.49;55.99;97096.27;108513;1275;25583;-76
2023/08/17 11:36:30;;;;;;;5.60;5.00;;;;;;;27.31;55.95;97113.08;108525;1275;23211;-75
2023/08/17 11:39:02;;;;;;;7.10;4.00;;;;;;;27.01;55.44;97128.56;108603;1274;22633;-77
2023/08/17 11:41:33;;;;;;;6.90;3.70;;;;;;;26.39;54.86;97134.02;108572;1267;22608;-76
2023/08/17 11:44:05;;;;;;;5.50;3.00;;;;;;;25.74;54.60;97153.68;108579;1267;22520;-74
2023/08/17 11:46:37;;;;;;;4.00;2.80;;;;;;;25.17;54.96;97172.45;108588;1274;25459;-73
2023/08/17 11:49:08;;;;;;;3.50;3.10;;;;;;;24.67;55.67;97184.47;108613;1274;24218;-74
2023/08/17 11:51:40;;;;;;;4.50;3.10;;;;;;;24.41;56.35;97185.77;108659;1274;22520;-77